Flight Track Log - Related Links

Times and Time Zones

All times are in EDT time to prevent confusion due to time zone crossing. See the MAL7062 flight status page for this flight to view local times or setup timezone preferences in your user account.

Time Position Orientation Groundspeed Altitude Reporting Facility
EDT Latitude Longitude Course Direction KTS MPH feet Rate Location/Type
Fri 12:14:22 AM 51.1200 -114.0260 90° East 164 189 4,000  Level FlightAware ADS-B
Fri 12:14:47 AM 51.1390 -114.0270 358° North 177 204 5,100 1,964 Climbing FlightAware ADS-B
Fri 12:15:17 AM 51.1670 -114.0300 356° North 210 242 5,800 2,073 Climbing FlightAware ADS-B
Fri 12:15:42 AM 51.1920 -114.0310 359° North 229 264 7,000 2,945 Climbing FlightAware ADS-B
Fri 12:16:12 AM 51.2230 -114.0300 North 232 267 8,500 3,055 Climbing FlightAware ADS-B
Fri 12:16:37 AM 51.2520 -114.0280 North 239 275 9,800 3,171 Climbing FlightAware ADS-B
Fri 12:17:22 AM 51.3030 -114.0210 North 247 284 12,200 2,836 Climbing FlightAware ADS-B
Fri 12:17:32 AM 51.3130 -114.0140 24° Northeast 269 310 12,400 1,400 Climbing FlightAware ADS-B
Fri 12:18:52 AM 51.2980 -113.8290 97° East 391 450 14,300 1,781 Climbing FlightAware ADS-B
Fri 12:20:07 AM 51.1980 -113.6700 135° Southeast 420 483 17,000 2,400 Climbing FlightAware ADS-B
Fri 12:21:17 AM 51.1460 -113.4670 112° Southeast 418 481 20,100 1,971 Climbing FlightAware ADS-B
Fri 12:22:27 AM 51.1340 -113.2390 95° East 460 529 21,600 1,629 Climbing FlightAware ADS-B
Fri 12:23:37 AM 51.1230 -113.0090 94° East 471 542 23,900 1,930 Climbing FlightAware ADS-B
Fri 12:24:22 AM 51.1160 -112.8510 94° East 478 550 25,300 1,725 Climbing FlightAware ADS-B
Fri 12:24:57 AM 51.1100 -112.7300 94° East 483 556 26,200 1,500 Climbing FlightAware ADS-B
Fri 12:25:42 AM 51.1010 -112.5700 95° East 491 565 27,300 1,400 Climbing FlightAware ADS-B
Fri 12:26:27 AM 51.0910 -112.4040 95° East 500 575 28,300 1,482 Climbing FlightAware ADS-B
Fri 12:27:07 AM 51.0820 -112.2550 95° East 502 578 29,400 1,800 Climbing FlightAware ADS-B
Fri 12:27:47 AM 51.0730 -112.1080 96° East 501 577 30,700 2,118 Climbing FlightAware ADS-B
Fri 12:28:32 AM 51.0640 -111.9470 95° East 491 565 32,400 2,329 Climbing FlightAware ADS-B
Fri 12:29:12 AM 51.0550 -111.8020 96° East 479 551 34,000 2,047 Climbing FlightAware ADS-B
Fri 12:29:57 AM 51.0450 -111.6490 96° East 476 548 35,300 1,694 Climbing FlightAware ADS-B
Fri 12:30:37 AM 51.0370 -111.5130 95° East 473 544 36,400 880 Climbing FlightAware ADS-B
Fri 12:31:12 AM 51.0310 -111.4010 95° East 473 544 36,400 900 Level FlightAware ADS-B
Fri 12:31:57 AM 51.0200 -111.2420 96° East 472 543 37,600 1,467 Climbing FlightAware ADS-B
Fri 12:32:42 AM 51.0080 -111.0830 97° East 480 552 38,600 840 Climbing FlightAware ADS-B
Fri 12:33:37 AM 50.9960 -110.8960 96° East 482 555 39,000 240 Climbing FlightAware ADS-B
Fri 12:34:22 AM 50.9840 -110.7320 97° East 482 555 39,000  Level FlightAware ADS-B
Fri 12:35:17 AM 50.9730 -110.5550 96° East 487 560 39,000  Level FlightAware ADS-B
Fri 12:35:52 AM 50.9600 -110.4030 98° East 485 558 39,000  Level FlightAware ADS-B
Fri 12:36:37 AM 50.9520 -110.2610 95° East 485 558 39,000  Level FlightAware ADS-B
Fri 12:37:17 AM 50.9460 -110.1400 94° East 485 558 39,000  Level FlightAware ADS-B
Fri 12:38:07 AM 50.9370 -109.9900 95° East 485 558 39,000  Level FlightAware ADS-B
Fri 12:38:47 AM 50.9310 -109.8690 94° East 485 558 39,000  Level FlightAware ADS-B
Fri 12:39:27 AM 50.9240 -109.7480 95° East 485 558 39,000  Level FlightAware ADS-B
Fri 12:40:07 AM 50.9170 -109.6280 95° East 485 558 39,000  Level FlightAware ADS-B
Fri 12:40:47 AM 50.9110 -109.5070 94° East 485 558 39,000  Level FlightAware ADS-B
Fri 12:41:27 AM 50.9040 -109.3870 95° East 485 558 39,000  Level FlightAware ADS-B
Fri 12:42:12 AM 50.8550 -109.0860 104° East 484 557 39,000  Level FlightAware ADS-B
Fri 12:42:52 AM 50.8460 -108.9660 97° East 484 557 39,000  Level FlightAware ADS-B
Fri 12:43:42 AM 50.8340 -108.8170 97° East 484 557 39,000  Level FlightAware ADS-B
Fri 12:44:37 AM 50.8140 -108.5960 98° East 486 559 39,000  Level FlightAware ADS-B
Fri 12:45:32 AM 50.7940 -108.3920 99° East 488 562 39,000  Level FlightAware ADS-B
Fri 12:46:12 AM 50.7800 -108.2450 99° East 490 564 39,000  Level FlightAware ADS-B
Fri 12:46:52 AM 50.7680 -108.1140 98° East 491 565 39,000  Level FlightAware ADS-B
Fri 12:47:52 AM 50.7510 -107.9260 98° East 492 566 39,000  Level FlightAware ADS-B
Fri 12:48:47 AM 50.7280 -107.6960 99° East 494 568 39,000  Level FlightAware ADS-B
Fri 12:49:22 AM 50.7160 -107.5700 99° East 494 568 39,000  Level FlightAware ADS-B
Fri 12:50:12 AM 50.6980 -107.3930 99° East 496 571 39,000  Level FlightAware ADS-B
Fri 12:50:47 AM 50.6840 -107.2570 99° East 495 570 39,000  Level FlightAware ADS-B
Fri 12:51:27 AM 50.6700 -107.1160 99° East 495 570 39,000  Level FlightAware ADS-B
Fri 12:52:17 AM 50.6530 -106.9520 99° East 494 568 39,000  Level FlightAware ADS-B
Fri 12:52:57 AM 50.6360 -106.7930 100° East 494 568 39,000  Level FlightAware ADS-B
Fri 12:53:37 AM 50.6210 -106.6530 100° East 494 568 39,000  Level FlightAware ADS-B
Fri 12:54:27 AM 50.6040 -106.4930 99° East 495 570 39,000  Level FlightAware ADS-B
Fri 12:55:07 AM 50.5860 -106.3310 100° East 496 571 39,000  Level FlightAware ADS-B
Fri 12:55:47 AM 50.5700 -106.1880 100° East 496 571 39,000  Level FlightAware ADS-B
Fri 12:56:27 AM 50.5570 -106.0700 100° East 497 572 39,000  Level FlightAware ADS-B
Fri 12:57:07 AM 50.5410 -105.9240 100° East 499 574 39,000  Level FlightAware ADS-B
Fri 12:57:57 AM 50.5200 -105.7420 100° East 500 575 39,000  Level FlightAware ADS-B
Fri 12:58:37 AM 50.5030 -105.5950 100° East 501 577 39,000  Level FlightAware ADS-B
Fri 12:59:17 AM 50.4860 -105.4550 101° East 502 578 39,000  Level FlightAware ADS-B
Fri 12:59:57 AM 50.4680 -105.3050 101° East 502 578 39,000  Level FlightAware ADS-B
Fri 01:00:42 AM 50.4500 -105.1490 100° East 503 579 39,000  Level FlightAware ADS-B
Fri 01:01:27 AM 50.4310 -104.9980 101° East 504 580 39,000  Level FlightAware ADS-B
Fri 01:02:07 AM 50.4140 -104.8560 101° East 504 580 39,000  Level FlightAware ADS-B
Fri 01:02:52 AM 50.3910 -104.6780 101° East 503 579 39,000  Level FlightAware ADS-B
Fri 01:03:32 AM 50.3730 -104.5280 101° East 503 579 39,000  Level FlightAware ADS-B
Fri 01:04:12 AM 50.3540 -104.3850 102° East 502 578 39,000  Level FlightAware ADS-B
Fri 01:04:52 AM 50.3380 -104.2610 101° East 503 579 39,000  Level FlightAware ADS-B
Fri 01:05:32 AM 50.3190 -104.1140 101° East 502 578 39,000  Level FlightAware ADS-B
Fri 01:06:17 AM 50.2970 -103.9480 102° East 501 577 39,000  Level FlightAware ADS-B
Fri 01:07:02 AM 50.2760 -103.7880 102° East 500 575 39,000  Level FlightAware ADS-B
Fri 01:07:47 AM 50.2570 -103.6460 102° East 500 575 39,000  Level FlightAware ADS-B
Fri 01:08:27 AM 50.2360 -103.4940 102° East 500 575 39,000  Level FlightAware ADS-B
Fri 01:09:07 AM 50.2190 -103.3660 102° East 499 574 39,000  Level FlightAware ADS-B
Fri 01:09:42 AM 50.1990 -103.2230 102° East 499 574 39,000  Level FlightAware ADS-B
Fri 01:10:22 AM 50.1830 -103.1080 102° East 498 573 39,000  Level FlightAware ADS-B
Fri 01:11:07 AM 50.1610 -102.9550 103° East 497 572 39,000  Level FlightAware ADS-B
Fri 01:11:47 AM 50.1410 -102.8130 102° East 496 571 39,000  Level FlightAware ADS-B
Fri 01:12:37 AM 50.1090 -102.5910 103° East 497 572 39,000  Level FlightAware ADS-B
Fri 01:13:17 AM 50.0910 -102.4640 102° East 497 572 39,000  Level FlightAware ADS-B
Fri 01:14:02 AM 50.0660 -102.3000 103° East 497 572 39,000  Level FlightAware ADS-B
Fri 01:14:42 AM 50.0450 -102.1570 103° East 498 573 39,000  Level FlightAware ADS-B
Fri 01:15:22 AM 50.0240 -102.0210 103° East 498 573 39,000  Level FlightAware ADS-B
Fri 01:16:22 AM 49.9960 -101.8290 103° East 499 574 39,000  Level FlightAware ADS-B
Fri 01:17:07 AM 49.9680 -101.6540 104° East 499 574 39,000  Level FlightAware ADS-B
Fri 01:17:47 AM 49.9460 -101.5120 103° East 499 574 39,000  Level FlightAware ADS-B
Fri 01:18:27 AM 49.9250 -101.3770 104° East 500 575 39,000  Level FlightAware ADS-B
Fri 01:19:12 AM 49.9000 -101.2140 103° East 501 577 39,000  Level FlightAware ADS-B
Fri 01:19:52 AM 49.8770 -101.0730 104° East 502 578 39,000  Level FlightAware ADS-B
Fri 01:20:37 AM 49.8530 -100.9200 104° East 503 579 39,000  Level FlightAware ADS-B
Fri 01:21:17 AM 49.8300 -100.7840 105° East 503 579 39,000  Level FlightAware ADS-B
Fri 01:21:57 AM 49.8080 -100.6490 104° East 503 579 39,000  Level FlightAware ADS-B
Fri 01:22:37 AM 49.7840 -100.5030 104° East 503 579 39,000  Level FlightAware ADS-B
Fri 01:23:17 AM 49.7610 -100.3620 104° East 502 578 39,000  Level FlightAware ADS-B
Fri 01:24:07 AM 49.7320 -100.1900 105° East 502 578 39,000  Level FlightAware ADS-B
Fri 01:24:47 AM 49.7090 -100.0540 105° East 501 577 39,000  Level FlightAware ADS-B
Fri 01:25:27 AM 49.6850 -99.9160 105° East 497 572 39,000  Level FlightAware ADS-B
Fri 01:26:07 AM 49.6620 -99.7780 104° East 494 568 39,000  Level FlightAware ADS-B
Fri 01:26:47 AM 49.6380 -99.6410 105° East 493 567 39,000  Level FlightAware ADS-B
Fri 01:27:37 AM 49.6080 -99.4720 105° East 492 566 39,000  Level FlightAware ADS-B
Fri 01:28:17 AM 49.5850 -99.3380 105° East 493 567 39,000  Level FlightAware ADS-B
Fri 01:28:57 AM 49.5600 -99.2000 106° East 492 566 39,000  Level FlightAware ADS-B
Fri 01:29:37 AM 49.5370 -99.0680 105° East 492 566 39,000  Level FlightAware ADS-B
Fri 01:30:22 AM 49.5090 -98.9130 105° East 491 565 39,000  Level FlightAware ADS-B
Fri 01:31:02 AM 49.4840 -98.7770 106° East 492 566 39,000  Level FlightAware ADS-B
Fri 01:31:37 AM 49.4630 -98.6610 106° East 491 565 39,000  Level FlightAware ADS-B
Fri 01:32:22 AM 49.4390 -98.5260 105° East 491 565 39,000  Level FlightAware ADS-B
Fri 01:33:22 AM 49.4010 -98.3200 106° East 490 564 39,000  Level FlightAware ADS-B
Fri 01:33:57 AM 49.3760 -98.1930 107° East 492 566 39,000  Level FlightAware ADS-B
Fri 01:35:02 AM 49.3390 -97.9940 106° East 491 565 39,000  Level FlightAware ADS-B
Fri 01:35:42 AM 49.3170 -97.8800 106° East 491 565 39,000  Level FlightAware ADS-B
Fri 01:36:22 AM 49.2960 -97.7660 106° East 491 565 39,000  Level FlightAware ADS-B
Fri 01:37:02 AM 49.2750 -97.6520 106° East 491 565 39,000  Level FlightAware ADS-B
Fri 01:37:52 AM 49.2480 -97.5100 106° East 491 565 39,000  Level FlightAware ADS-B
Fri 01:38:32 AM 49.2270 -97.3960 106° East 491 565 39,000  Level FlightAware ADS-B
Fri 01:39:12 AM 49.2060 -97.2820 106° East 491 565 39,000  Level FlightAware ADS-B
Fri 01:39:52 AM 49.1500 -97.0260 108° East 495 570 39,000  Level FlightAware ADS-B
Fri 01:40:37 AM 49.1230 -96.8860 106° East 495 570 39,000  Level FlightAware ADS-B
Fri 01:41:12 AM 49.0940 -96.7520 108° East 496 571 39,000  Level FlightAware ADS-B
Fri 01:42:02 AM 49.0590 -96.5810 107° East 495 570 39,000  Level FlightAware ADS-B
Fri 01:42:42 AM 49.0310 -96.4420 107° East 496 571 39,000  Level FlightAware ADS-B
Fri 01:43:27 AM 49.0010 -96.2960 107° East 497 572 39,000  Level FlightAware ADS-B
Fri 01:44:07 AM 48.9720 -96.1550 107° East 498 573 39,000  Level FlightAware ADS-B
Fri 01:44:42 AM 48.9480 -96.0420 108° East 498 573 39,000  Level FlightAware ADS-B
Fri 01:45:32 AM 48.9140 -95.8820 108° East 498 573 39,000  Level FlightAware ADS-B
Fri 01:46:27 AM 48.8770 -95.7050 108° East 499 574 39,000  Level FlightAware ADS-B
Fri 01:47:07 AM 48.8540 -95.5910 107° East 499 574 39,000  Level FlightAware ADS-B
Fri 01:47:47 AM 48.8310 -95.4770 107° East 499 574 39,000  Level FlightAware ADS-B
Fri 01:48:27 AM 48.8080 -95.3630 107° East 499 574 39,000  Level FlightAware ADS-B
Fri 01:49:17 AM 48.7800 -95.2200 106° East 499 574 39,000  Level FlightAware ADS-B
Fri 01:49:57 AM 48.7570 -95.1060 107° East 499 574 39,000  Level FlightAware ADS-B
Fri 01:50:37 AM 48.7340 -94.9920 107° East 499 574 39,000  Level FlightAware ADS-B
Fri 01:51:17 AM 48.7110 -94.8790 107° East 499 574 39,000  Level FlightAware ADS-B
Fri 01:52:07 AM 48.6310 -94.5820 112° Southeast 495 570 39,000  Level FlightAware ADS-B
Fri 01:52:47 AM 48.5970 -94.4360 109° East 494 568 39,000  Level FlightAware ADS-B
Fri 01:53:42 AM 48.5600 -94.2680 108° East 494 568 39,000  Level FlightAware ADS-B
Fri 01:54:17 AM 48.5310 -94.1460 110° East 494 568 39,000  Level FlightAware ADS-B
Fri 01:55:07 AM 48.4930 -93.9820 109° East 495 570 39,000  Level FlightAware ADS-B
Fri 01:55:47 AM 48.4630 -93.8530 109° East 496 571 39,000  Level FlightAware ADS-B
Fri 01:56:27 AM 48.4340 -93.7300 110° East 497 572 39,000  Level FlightAware ADS-B
Fri 01:57:12 AM 48.3990 -93.5770 109° East 497 572 39,000  Level FlightAware ADS-B
Fri 01:57:52 AM 48.3680 -93.4480 110° East 497 572 39,000  Level FlightAware ADS-B
Fri 01:58:37 AM 48.3330 -93.3030 110° East 498 573 39,000  Level FlightAware ADS-B
Fri 01:59:17 AM 48.3010 -93.1690 110° East 497 572 39,000  Level FlightAware ADS-B
Fri 01:59:57 AM 48.2700 -93.0390 110° East 497 572 39,000  Level FlightAware ADS-B
Fri 02:00:37 AM 48.2390 -92.9120 110° East 496 571 39,000  Level FlightAware ADS-B
Fri 02:01:17 AM 48.2080 -92.7830 110° East 496 571 39,000  Level FlightAware ADS-B
Fri 02:01:57 AM 48.1750 -92.6500 110° East 496 571 39,000  Level FlightAware ADS-B
Fri 02:02:42 AM 48.1400 -92.5080 110° East 496 571 39,000  Level FlightAware ADS-B
Fri 02:03:22 AM 48.1090 -92.3830 110° East 496 571 39,000  Level FlightAware ADS-B
Fri 02:04:07 AM 48.0710 -92.2310 110° East 496 571 39,000  Level FlightAware ADS-B
Fri 02:04:47 AM 48.0390 -92.1050 111° Southeast 495 570 39,000  Level FlightAware ADS-B
Fri 02:05:27 AM 48.0070 -91.9760 110° East 494 568 39,000  Level FlightAware ADS-B
Fri 02:06:12 AM 47.9710 -91.8360 111° Southeast 495 570 39,000  Level FlightAware ADS-B
Fri 02:06:52 AM 47.9390 -91.7100 111° Southeast 495 570 39,000 71 Level FlightAware ADS-B
Fri 02:07:37 AM 47.9010 -91.5620 111° Southeast 496 571 39,100  Climbing FlightAware ADS-B
Fri 02:08:17 AM 47.8680 -91.4350 111° Southeast 497 572 39,000 -75 Descending FlightAware ADS-B
Fri 02:08:57 AM 47.8350 -91.3080 111° Southeast 496 571 39,000  Level FlightAware ADS-B
Fri 02:09:42 AM 47.7980 -91.1660 111° Southeast 496 571 39,000  Level FlightAware ADS-B
Fri 02:10:22 AM 47.7640 -91.0390 112° Southeast 496 571 39,000  Level FlightAware ADS-B
Fri 02:11:07 AM 47.7270 -90.8990 111° Southeast 495 570 39,000  Level FlightAware ADS-B
Fri 02:11:47 AM 47.6940 -90.7730 111° Southeast 495 570 39,000  Level FlightAware ADS-B
Fri 02:12:32 AM 47.6540 -90.6260 112° Southeast 495 570 39,000  Level FlightAware ADS-B
Fri 02:13:12 AM 47.6200 -90.4990 112° Southeast 494 568 39,000  Level FlightAware ADS-B
Fri 02:13:52 AM 47.5870 -90.3750 111° Southeast 493 567 39,000  Level FlightAware ADS-B
Fri 02:15:02 AM 47.5270 -90.1560 112° Southeast 493 567 39,000  Level FlightAware ADS-B
Fri 02:15:47 AM 47.4880 -90.0150 112° Southeast 493 567 39,000  Level FlightAware ADS-B
Fri 02:16:27 AM 47.4580 -89.9040 112° Southeast 493 567 39,000  Level FlightAware ADS-B
Fri 02:17:07 AM 47.4190 -89.7660 113° Southeast 493 567 39,000  Level FlightAware ADS-B
Fri 02:17:52 AM 47.3810 -89.6310 113° Southeast 494 568 39,000  Level FlightAware ADS-B
Fri 02:18:27 AM 47.3530 -89.5300 112° Southeast 494 568 39,000  Level FlightAware ADS-B
Fri 02:19:12 AM 47.3110 -89.3840 113° Southeast 494 568 39,000  Level FlightAware ADS-B
Fri 02:19:57 AM 47.2770 -89.2590 112° Southeast 494 568 39,000  Level FlightAware ADS-B
Fri 02:20:37 AM 47.2480 -89.1530 112° Southeast 494 568 39,000  Level FlightAware ADS-B
Fri 02:21:17 AM 47.2190 -89.0470 112° Southeast 494 568 39,000  Level FlightAware ADS-B
Fri 02:22:07 AM 47.1830 -88.9140 112° Southeast 494 568 39,000  Level FlightAware ADS-B
Fri 02:22:37 AM 47.1610 -88.8350 112° Southeast 494 568 39,000  Level FlightAware ADS-B
Fri 02:23:27 AM 47.1240 -88.7030 112° Southeast 494 568 39,000  Level FlightAware ADS-B
Fri 02:24:07 AM 47.0950 -88.5970 112° Southeast 494 568 39,000  Level FlightAware ADS-B
Fri 02:24:47 AM 47.0660 -88.4910 112° Southeast 494 568 39,000  Level FlightAware ADS-B
Fri 02:25:27 AM 47.0370 -88.3850 112° Southeast 494 568 39,000  Level FlightAware ADS-B
Fri 02:26:17 AM 47.0010 -88.2530 112° Southeast 494 568 39,000  Level FlightAware ADS-B
Fri 02:26:57 AM 46.9710 -88.1470 112° Southeast 494 568 39,000  Level FlightAware ADS-B
Fri 02:27:37 AM 46.9420 -88.0420 112° Southeast 494 568 39,000  Level FlightAware ADS-B
Fri 02:28:17 AM 46.9130 -87.9360 112° Southeast 494 568 39,000  Level FlightAware ADS-B
Fri 02:28:57 AM 46.8840 -87.8310 112° Southeast 494 568 39,000  Level FlightAware ADS-B
Fri 02:32:27 AM 46.5780 -86.9230 116° Southeast 498 573 39,000  Level FlightAware ADS-B
Fri 02:33:12 AM 46.5360 -86.7890 114° Southeast 498 573 39,000  Level FlightAware ADS-B
Fri 02:33:57 AM 46.4930 -86.6520 114° Southeast 501 577 39,000  Level FlightAware ADS-B
Fri 02:34:37 AM 46.4530 -86.5260 115° Southeast 502 578 39,000  Level FlightAware ADS-B
Fri 02:35:22 AM 46.4080 -86.3860 115° Southeast 504 580 39,000  Level FlightAware ADS-B
Fri 02:36:07 AM 46.3650 -86.2530 115° Southeast 506 582 39,000  Level FlightAware ADS-B
Fri 02:36:47 AM 46.3260 -86.1290 114° Southeast 507 583 39,000  Level FlightAware ADS-B
Fri 02:37:27 AM 46.2850 -86.0060 116° Southeast 509 586 39,000  Level FlightAware ADS-B
Fri 02:38:12 AM 46.2400 -85.8660 115° Southeast 509 586 39,000  Level FlightAware ADS-B
Fri 02:38:52 AM 46.1990 -85.7410 115° Southeast 509 586 39,000  Level FlightAware ADS-B
Fri 02:39:37 AM 46.1550 -85.6060 115° Southeast 510 587 39,000  Level FlightAware ADS-B
Fri 02:40:17 AM 46.1150 -85.4860 116° Southeast 509 586 39,000  Level FlightAware ADS-B
Fri 02:40:57 AM 46.0740 -85.3620 115° Southeast 509 586 39,000  Level FlightAware ADS-B
Fri 02:41:42 AM 46.0270 -85.2220 116° Southeast 510 587 39,000  Level FlightAware ADS-B
Fri 02:42:22 AM 45.9860 -85.1000 116° Southeast 510 587 39,000  Level FlightAware ADS-B
Fri 02:43:07 AM 45.9410 -84.9660 116° Southeast 510 587 39,000  Level FlightAware ADS-B
Fri 02:43:47 AM 45.8990 -84.8420 116° Southeast 508 585 39,000  Level FlightAware ADS-B
Fri 02:44:27 AM 45.8580 -84.7230 116° Southeast 507 583 39,000  Level FlightAware ADS-B
Fri 02:45:12 AM 45.8110 -84.5850 116° Southeast 505 581 39,000  Level FlightAware ADS-B
Fri 02:45:52 AM 45.7700 -84.4670 116° Southeast 500 575 39,000  Level FlightAware ADS-B
Fri 02:46:37 AM 45.7250 -84.3360 116° Southeast 493 567 39,000  Level FlightAware ADS-B
Fri 02:47:17 AM 45.6840 -84.2190 117° Southeast 492 566 39,000  Level FlightAware ADS-B
Fri 02:47:57 AM 45.6430 -84.1010 116° Southeast 492 566 39,000  Level FlightAware ADS-B
Fri 02:48:42 AM 45.5990 -83.9760 117° Southeast 493 567 39,000  Level FlightAware ADS-B
Fri 02:49:22 AM 45.5570 -83.8570 117° Southeast 492 566 39,000  Level FlightAware ADS-B
Fri 02:50:02 AM 45.5180 -83.7450 116° Southeast 492 566 39,000  Level FlightAware ADS-B
Fri 02:50:47 AM 45.4710 -83.6130 117° Southeast 494 568 39,000  Level FlightAware ADS-B
Fri 02:51:27 AM 45.4280 -83.4930 117° Southeast 495 570 39,000  Level FlightAware ADS-B
Fri 02:52:07 AM 45.3860 -83.3780 117° Southeast 495 570 39,000  Level FlightAware ADS-B
Fri 02:52:52 AM 45.3390 -83.2470 117° Southeast 497 572 39,000  Level FlightAware ADS-B
Fri 02:53:32 AM 45.2960 -83.1290 117° Southeast 499 574 39,000  Level FlightAware ADS-B
Fri 02:54:17 AM 45.2490 -82.9990 117° Southeast 499 574 39,000  Level FlightAware ADS-B
Fri 02:54:57 AM 45.2070 -82.8850 118° Southeast 501 577 39,000  Level FlightAware ADS-B
Fri 02:55:37 AM 45.1630 -82.7650 117° Southeast 506 582 39,000  Level FlightAware ADS-B
Fri 02:56:22 AM 45.1140 -82.6300 117° Southeast 509 586 39,000  Level FlightAware ADS-B
Fri 02:57:07 AM 45.0660 -82.5030 118° Southeast 511 588 39,000  Level FlightAware ADS-B
Fri 02:57:42 AM 45.0290 -82.4030 118° Southeast 511 588 39,000  Level FlightAware ADS-B
Fri 02:58:27 AM 44.9790 -82.2680 118° Southeast 509 586 39,000  Level FlightAware ADS-B
Fri 02:59:02 AM 44.9390 -82.1630 118° Southeast 509 586 39,000  Level FlightAware ADS-B
Fri 02:59:52 AM 44.8830 -82.0140 118° Southeast 509 586 39,000  Level FlightAware ADS-B
Fri 03:00:32 AM 44.8400 -81.8990 118° Southeast 509 586 39,000  Level FlightAware ADS-B
Fri 03:01:12 AM 44.7950 -81.7810 118° Southeast 508 585 39,000  Level FlightAware ADS-B
Fri 03:01:52 AM 44.7520 -81.6690 118° Southeast 507 583 39,000 -533 Level FlightAware ADS-B
Fri 03:02:42 AM 44.7170 -81.5780 118° Southeast 503 579 38,200 -1,733 Descending FlightAware ADS-B
Fri 03:03:22 AM 44.6720 -81.4620 119° Southeast 505 581 36,400 -2,560 Descending FlightAware ADS-B
Fri 03:03:57 AM 44.6410 -81.3810 118° Southeast 508 585 35,000 -2,894 Descending FlightAware ADS-B
Fri 03:04:47 AM 44.5790 -81.2220 119° Southeast 512 589 32,300 -3,200 Descending FlightAware ADS-B
Fri 03:05:27 AM 44.5330 -81.1020 118° Southeast 510 587 30,200 -2,720 Descending FlightAware ADS-B
Fri 03:06:02 AM 44.4950 -81.0050 119° Southeast 496 571 28,900 -2,250 Descending FlightAware ADS-B
Fri 03:06:47 AM 44.4480 -80.8860 119° Southeast 479 551 27,200 -2,200 Descending FlightAware ADS-B
Fri 03:07:32 AM 44.4040 -80.7730 119° Southeast 465 535 25,600 -2,467 Descending FlightAware ADS-B
Fri 03:08:17 AM 44.3490 -80.6360 119° Southeast 448 516 23,500 -2,325 Descending FlightAware ADS-B
Fri 03:08:52 AM 44.3220 -80.5690 119° Southeast 440 506 22,500 -2,118 Descending FlightAware ADS-B
Fri 03:09:42 AM 44.2760 -80.4510 119° Southeast 427 491 20,500 -2,467 Descending FlightAware ADS-B
Fri 03:10:22 AM 44.2340 -80.3470 119° Southeast 415 478 18,800 -2,480 Descending FlightAware ADS-B
Fri 03:10:57 AM 44.2010 -80.2660 120° Southeast 406 467 17,400 -2,400 Descending FlightAware ADS-B
Fri 03:11:52 AM 44.1460 -80.1450 122° Southeast 387 445 15,200 -2,280 Descending FlightAware ADS-B
Fri 03:12:37 AM 44.0910 -80.0810 140° Southeast 373 429 13,600 -2,067 Descending FlightAware ADS-B
Fri 03:13:22 AM 43.9980 -79.9950 146° Southeast 319 367 12,100 -1,800 Descending FlightAware ADS-B
Fri 03:14:07 AM 43.9360 -79.9760 168° South 290 334 10,900 -1,835 Descending FlightAware ADS-B
Fri 03:14:47 AM 43.8860 -79.9620 169° South 277 319 9,500 -2,291 Descending FlightAware ADS-B
Fri 03:15:02 AM 43.8660 -79.9570 170° South 274 315 8,800 -2,850 Descending FlightAware ADS-B
Fri 03:15:27 AM 43.8350 -79.9480 168° South 274 315 7,600 -2,836 Descending FlightAware ADS-B
Fri 03:15:57 AM 43.7990 -79.9390 170° South 272 313 6,200 -2,667 Descending FlightAware ADS-B
Fri 03:16:12 AM 43.7790 -79.9330 168° South 264 304 5,600 -2,000 Descending FlightAware ADS-B
Fri 03:16:42 AM 43.7440 -79.9230 168° South 244 281 4,700 -1,636 Descending FlightAware ADS-B
Fri 03:17:07 AM 43.7180 -79.9160 169° South 229 264 4,100 -1,418 Descending FlightAware ADS-B
Fri 03:17:37 AM 43.6870 -79.9080 169° South 216 249 3,400 -1,200 Descending FlightAware ADS-B
Fri 03:18:02 AM 43.6630 -79.9010 168° South 211 243 3,000 -436 Descending FlightAware ADS-B
Fri 03:18:32 AM 43.6360 -79.8870 159° South 210 242 3,000  Level FlightAware ADS-B
Fri 03:18:47 AM 43.6240 -79.8760 146° Southeast 210 242 3,000  Level FlightAware ADS-B
Fri 03:19:12 AM 43.6050 -79.8570 144° Southeast 196 226 3,000  Level FlightAware ADS-B
Fri 03:19:42 AM 43.5890 -79.8290 128° Southeast 195 224 3,000  Level FlightAware ADS-B
Fri 03:19:57 AM 43.5920 -79.8110 77° East 197 227 3,000 -300 Level FlightAware ADS-B
Fri 03:20:22 AM 43.6060 -79.7880 50° Northeast 187 215 2,800 -655 Descending FlightAware ADS-B
Fri 03:20:52 AM 43.6240 -79.7620 46° Northeast 176 203 2,400 -800 Descending FlightAware ADS-B
Fri 03:21:22 AM 43.6390 -79.7400 47° Northeast 159 183 2,000 -873 Descending FlightAware ADS-B
Fri 03:21:47 AM 43.6510 -79.7230 46° Northeast 133 153 1,600 -764 Descending FlightAware ADS-B
Fri 03:22:17 AM 43.6630 -79.7060 46° Northeast 111 128 1,300 -545 Descending FlightAware ADS-B
Fri 03:22:42 AM 43.6720 -79.6930 46° Northeast 112 129 1,100 -600 Descending FlightAware ADS-B
Fri 03:22:57 AM 43.6780 -79.6850 44° Northeast 115 132 900 -600 Descending FlightAware ADS-B
Fri 03:23:22 AM 43.6860 -79.6730 47° Northeast 116 133 700 -240 Descending FlightAware ADS-B
Fri 03:23:47 AM 43.6940 -79.6610 47° Northeast 116 133 700  Level FlightAware ADS-B

Login

Don't have an account? Register now (free) for customized features, flight alerts, and more!